Eva, Tennessee
Current Conditions -  °F | °C
As of 10:35 AM on Saturday 22 Nov 2014 (Local Time) from KPHT Reporting Station
Few Clouds Few Clouds  
Wind Chill: 14°   Ceiling: Unl
Heat Index: 14°   Visibility: 10mi
Dew Point:   Wind: 13mph
Humidity: 48%   Direction: 180°S
Pressure: 30.26"   Gusts: NA
Location:  36.06°N, 88°W
Report Text: KPHT 221635Z AUTO 18011KT 10SM FEW095 14/03 A3026 RMK
Loading
Personal Weather Stations






























Interactive Weather Map New forecast layout! Learn more

10-Day Weather Forecast

Advertisements
Track Severe Weather on mobile